createdAt,value
2023-05-19T00:00:54.812Z,55.80
2023-05-19T00:03:21.926Z,55.54
2023-05-19T00:05:49.019Z,55.83
2023-05-19T00:08:17.059Z,55.73
2023-05-19T00:10:43.904Z,55.62
2023-05-19T00:13:10.548Z,55.50
2023-05-19T00:15:37.334Z,55.47
2023-05-19T00:18:03.790Z,55.75
2023-05-19T00:20:30.494Z,55.68
2023-05-19T00:22:57.096Z,55.77
2023-05-19T00:25:23.589Z,55.55
2023-05-19T00:27:50.011Z,56.29
2023-05-19T00:30:16.536Z,55.49
2023-05-19T00:32:42.952Z,55.53
2023-05-19T00:35:09.703Z,55.63
2023-05-19T00:37:36.069Z,55.52
2023-05-19T00:40:02.567Z,55.74
2023-05-19T00:42:28.995Z,56.30
2023-05-19T00:44:55.713Z,56.26
2023-05-19T00:47:22.368Z,56.39
2023-05-19T00:49:48.814Z,55.96
2023-05-19T00:52:15.486Z,55.64
2023-05-19T00:54:43.126Z,56.15
2023-05-19T00:57:09.609Z,56.06
2023-05-19T00:59:36.192Z,56.83
2023-05-19T01:02:02.835Z,56.55
2023-05-19T01:04:29.758Z,56.39
2023-05-19T01:06:56.520Z,56.08
2023-05-19T01:09:23.671Z,56.19
2023-05-19T01:11:50.534Z,56.45
2023-05-19T01:14:19.021Z,56.23
2023-05-19T01:17:05.217Z,55.88
2023-05-19T01:20:02.144Z,56.29
2023-05-19T01:22:36.958Z,56.52
2023-05-19T01:25:22.538Z,56.36
2023-05-19T01:28:23.426Z,56.67
2023-05-19T01:30:54.657Z,56.62
2023-05-19T01:33:22.942Z,56.80
2023-05-19T01:35:50.608Z,56.64
2023-05-19T01:38:19.264Z,56.83
2023-05-19T01:40:47.174Z,56.61
2023-05-19T01:43:18.640Z,56.77
2023-05-19T01:45:46.134Z,56.73
2023-05-19T01:48:13.672Z,56.49
2023-05-19T01:50:41.118Z,56.49
2023-05-19T01:53:07.909Z,56.95
2023-05-19T01:55:36.662Z,56.72
2023-05-19T01:58:26.609Z,56.83
2023-05-19T02:01:00.084Z,56.83
2023-05-19T02:03:51.371Z,56.77
2023-05-19T02:06:47.221Z,56.91
2023-05-19T02:09:25.457Z,57.12
2023-05-19T02:12:04.795Z,57.29
2023-05-19T02:14:49.495Z,57.44
2023-05-19T02:17:17.833Z,57.12
2023-05-19T02:19:44.799Z,57.66
2023-05-19T02:22:11.178Z,57.56
2023-05-19T02:24:37.717Z,57.42
2023-05-19T02:27:04.339Z,57.54
2023-05-19T02:29:30.764Z,57.15
2023-05-19T02:31:57.185Z,57.49
2023-05-19T02:34:23.617Z,57.40
2023-05-19T02:36:50.568Z,57.46
2023-05-19T02:39:17.015Z,57.91
2023-05-19T02:41:43.438Z,57.59
2023-05-19T02:44:09.976Z,58.14
2023-05-19T02:46:36.482Z,58.17
2023-05-19T02:49:02.899Z,57.94
2023-05-19T02:51:29.286Z,57.62
2023-05-19T02:53:55.782Z,58.86
2023-05-19T02:56:22.555Z,58.63
2023-05-19T02:58:48.947Z,59.01
2023-05-19T03:01:15.719Z,58.68
2023-05-19T03:03:42.261Z,58.41
2023-05-19T03:06:09.236Z,58.81
2023-05-19T03:08:36.090Z,59.06
2023-05-19T03:11:03.393Z,59.07
2023-05-19T03:13:30.039Z,59.55
2023-05-19T03:15:58.649Z,59.52
2023-05-19T03:18:26.804Z,59.08
2023-05-19T03:20:53.960Z,59.05
2023-05-19T03:23:21.563Z,59.53
2023-05-19T03:25:48.191Z,59.30
2023-05-19T03:28:14.556Z,59.95
2023-05-19T03:30:40.953Z,60.03
2023-05-19T03:33:07.534Z,59.61
2023-05-19T03:35:34.105Z,59.37
2023-05-19T03:38:00.514Z,59.56
2023-05-19T03:40:27.105Z,59.47
2023-05-19T03:42:54.371Z,59.52
2023-05-19T03:45:21.042Z,59.31
2023-05-19T03:47:47.659Z,59.69
2023-05-19T03:50:14.117Z,60.12
2023-05-19T03:52:40.487Z,60.28
2023-05-19T03:55:07.751Z,60.24
2023-05-19T03:57:37.265Z,60.54
2023-05-19T04:00:05.852Z,59.79
2023-05-19T04:02:32.314Z,60.45
2023-05-19T04:04:58.905Z,60.29
2023-05-19T04:07:25.694Z,60.35
2023-05-19T04:09:52.091Z,60.05
2023-05-19T04:12:18.468Z,59.92
2023-05-19T04:14:44.911Z,59.79
2023-05-19T04:17:11.700Z,60.57
2023-05-19T04:19:38.131Z,60.88
2023-05-19T04:22:04.771Z,60.59
2023-05-19T04:24:31.353Z,60.59
2023-05-19T04:27:02.324Z,60.30
2023-05-19T04:29:29.486Z,60.87
2023-05-19T04:31:57.109Z,61.13
2023-05-19T04:34:23.556Z,60.85
2023-05-19T04:36:52.404Z,60.97
2023-05-19T04:39:19.908Z,60.76
2023-05-19T04:41:46.332Z,61.11
2023-05-19T04:44:13.657Z,60.93
2023-05-19T04:46:40.254Z,61.63
2023-05-19T04:49:07.702Z,61.38
2023-05-19T04:51:35.701Z,61.19
2023-05-19T04:54:02.201Z,61.74
2023-05-19T04:56:28.825Z,61.12
2023-05-19T04:58:55.317Z,61.18
2023-05-19T05:01:25.873Z,61.25
2023-05-19T05:03:55.744Z,61.61
2023-05-19T05:06:22.361Z,61.50
2023-05-19T05:08:49.356Z,61.12
2023-05-19T05:11:16.661Z,61.02
2023-05-19T05:13:43.412Z,60.89
2023-05-19T05:16:10.682Z,61.06
2023-05-19T05:18:38.666Z,61.06
2023-05-19T05:21:06.783Z,61.45
2023-05-19T05:23:33.459Z,61.12
2023-05-19T05:26:03.111Z,61.07
2023-05-19T05:28:29.706Z,62.38
2023-05-19T05:30:57.288Z,61.44
2023-05-19T05:33:24.730Z,61.10
2023-05-19T05:35:51.355Z,61.30
2023-05-19T05:38:17.774Z,62.07
2023-05-19T05:40:44.148Z,61.70
2023-05-19T05:43:10.522Z,61.57
2023-05-19T05:45:36.965Z,61.65
2023-05-19T05:48:03.831Z,60.29
2023-05-19T05:50:30.620Z,60.48
2023-05-19T05:52:57.838Z,59.95
2023-05-19T05:55:24.590Z,59.62
2023-05-19T05:57:51.683Z,59.56
2023-05-19T06:00:18.777Z,59.19
2023-05-19T06:02:49.460Z,59.38
2023-05-19T06:05:16.526Z,60.25
2023-05-19T06:07:43.725Z,60.12
2023-05-19T06:10:10.348Z,59.87
2023-05-19T06:12:40.450Z,59.70
2023-05-19T06:15:08.004Z,59.49
2023-05-19T06:17:36.061Z,60.02
2023-05-19T06:20:04.876Z,59.70
2023-05-19T06:22:31.292Z,59.63
2023-05-19T06:24:57.739Z,59.77
2023-05-19T06:27:24.373Z,59.74
2023-05-19T06:29:50.957Z,60.18
2023-05-19T06:32:17.389Z,59.63
2023-05-19T06:34:44.029Z,59.93
2023-05-19T06:37:10.730Z,60.07
2023-05-19T06:39:38.166Z,59.97
2023-05-19T06:42:05.106Z,60.78
2023-05-19T06:44:31.485Z,60.19
2023-05-19T06:46:57.934Z,60.27
2023-05-19T06:49:24.469Z,59.80
2023-05-19T06:51:50.988Z,60.12
2023-05-19T06:54:17.543Z,59.78
2023-05-19T06:56:43.976Z,59.86
2023-05-19T06:59:10.766Z,60.47
2023-05-19T07:01:37.788Z,60.11
2023-05-19T07:04:04.435Z,60.19
2023-05-19T07:06:31.241Z,60.66
2023-05-19T07:08:57.668Z,60.46
2023-05-19T07:11:24.546Z,59.92
2023-05-19T07:13:50.967Z,60.13
2023-05-19T07:16:17.406Z,60.16
2023-05-19T07:18:43.996Z,59.85
2023-05-19T07:21:10.785Z,60.05
2023-05-19T07:23:37.156Z,60.21
2023-05-19T07:26:03.810Z,59.95
2023-05-19T07:28:30.180Z,59.86
2023-05-19T07:30:56.543Z,60.11
2023-05-19T07:33:23.033Z,59.45
2023-05-19T07:35:49.427Z,59.67
2023-05-19T07:38:15.826Z,59.22
2023-05-19T07:40:42.223Z,59.52
2023-05-19T07:43:08.716Z,60.05
2023-05-19T07:45:35.204Z,59.65
2023-05-19T07:48:01.767Z,59.14
2023-05-19T07:50:28.242Z,59.70
2023-05-19T07:52:54.708Z,59.67
2023-05-19T07:55:23.073Z,59.34
2023-05-19T07:57:50.805Z,59.42
2023-05-19T08:00:17.892Z,59.58
2023-05-19T08:02:44.813Z,59.68
2023-05-19T08:05:11.533Z,59.78
2023-05-19T08:07:37.973Z,60.51
2023-05-19T08:10:04.761Z,59.94
2023-05-19T08:12:31.301Z,59.61
2023-05-19T08:15:00.422Z,58.59
2023-05-19T08:17:27.674Z,59.39
2023-05-19T08:19:54.102Z,59.21
2023-05-19T08:22:20.661Z,59.28
2023-05-19T08:24:49.567Z,59.14
2023-05-19T08:27:17.072Z,59.65
2023-05-19T08:29:43.507Z,59.85
2023-05-19T08:32:12.949Z,59.34
2023-05-19T08:34:39.676Z,59.71
2023-05-19T08:37:06.876Z,58.91
2023-05-19T08:39:34.758Z,59.24
2023-05-19T08:42:01.539Z,59.55
2023-05-19T08:44:28.365Z,59.29
2023-05-19T08:46:56.234Z,59.45
2023-05-19T08:49:26.531Z,59.34
2023-05-19T08:52:06.271Z,59.53
2023-05-19T08:54:54.470Z,59.35
2023-05-19T08:57:24.773Z,59.54
2023-05-19T08:59:52.203Z,59.97
2023-05-19T09:02:19.655Z,59.89
2023-05-19T09:04:47.926Z,59.94
2023-05-19T09:07:15.273Z,59.39
2023-05-19T09:09:43.682Z,59.90
2023-05-19T09:12:13.792Z,59.88
2023-05-19T09:14:40.533Z,59.42
2023-05-19T09:17:07.192Z,59.75
2023-05-19T09:19:33.817Z,59.55
2023-05-19T09:22:01.375Z,59.43
2023-05-19T09:24:28.253Z,59.03
2023-05-19T09:27:00.087Z,58.91
2023-05-19T09:29:27.146Z,58.30
2023-05-19T09:31:55.898Z,58.73
2023-05-19T09:34:24.642Z,58.75
2023-05-19T09:36:53.172Z,59.13
2023-05-19T09:39:21.850Z,58.76
2023-05-19T09:41:54.976Z,59.22
2023-05-19T09:44:29.239Z,58.67
2023-05-19T09:46:56.200Z,58.64
2023-05-19T09:49:24.501Z,58.26
2023-05-19T09:51:58.692Z,58.30
2023-05-19T09:54:28.300Z,58.37
2023-05-19T09:57:03.435Z,58.41
2023-05-19T09:59:33.341Z,57.93
2023-05-19T10:02:01.648Z,57.74
2023-05-19T10:04:29.468Z,58.18
2023-05-19T10:06:59.329Z,58.07
2023-05-19T10:09:27.319Z,58.25
2023-05-19T10:11:55.250Z,57.78
2023-05-19T10:14:26.672Z,57.63
2023-05-19T10:16:55.446Z,57.48
2023-05-19T10:19:23.736Z,57.27
2023-05-19T10:21:51.004Z,57.36
2023-05-19T10:24:18.086Z,58.01
2023-05-19T10:26:48.161Z,57.51
2023-05-19T10:29:19.902Z,57.20
2023-05-19T10:31:47.670Z,57.53
2023-05-19T10:34:32.500Z,57.36
2023-05-19T10:37:22.162Z,57.49
2023-05-19T10:39:51.219Z,57.63
2023-05-19T10:42:34.749Z,57.66
2023-05-19T10:45:16.181Z,57.33
2023-05-19T10:47:43.515Z,57.25
2023-05-19T10:50:11.100Z,57.54
2023-05-19T10:52:38.532Z,57.23
2023-05-19T10:55:08.604Z,57.59
2023-05-19T10:57:35.457Z,57.15
2023-05-19T11:00:28.193Z,57.25
2023-05-19T11:02:57.805Z,56.44
2023-05-19T11:05:29.427Z,56.50
2023-05-19T11:08:10.669Z,56.37
2023-05-19T11:10:37.072Z,54.95
2023-05-19T11:13:06.613Z,55.11
2023-05-19T11:15:39.099Z,55.08
2023-05-19T11:18:05.667Z,54.95
2023-05-19T11:20:34.668Z,54.43
2023-05-19T11:23:09.290Z,54.57
2023-05-19T11:25:46.921Z,54.83
2023-05-19T11:28:19.925Z,54.78
2023-05-19T11:30:50.773Z,54.62
2023-05-19T11:33:20.861Z,53.81
2023-05-19T11:35:50.273Z,54.40
2023-05-19T11:38:20.465Z,54.76
2023-05-19T11:40:49.638Z,54.66
2023-05-19T11:43:18.624Z,54.13
2023-05-19T11:45:45.610Z,54.61
2023-05-19T11:48:12.815Z,54.45
2023-05-19T11:50:43.792Z,53.85
2023-05-19T11:53:13.967Z,53.34
2023-05-19T11:55:46.674Z,52.94
2023-05-19T11:58:13.835Z,52.89
2023-05-19T12:00:42.705Z,52.98
2023-05-19T12:03:09.923Z,53.20
2023-05-19T12:05:41.802Z,53.38
2023-05-19T12:08:09.792Z,52.89
2023-05-19T12:10:36.817Z,52.99
2023-05-19T12:13:03.589Z,53.08
2023-05-19T12:15:31.849Z,53.53
2023-05-19T12:18:01.760Z,53.71
2023-05-19T12:20:31.947Z,52.94
2023-05-19T12:23:00.049Z,53.00
2023-05-19T12:25:26.525Z,53.17
2023-05-19T12:27:58.138Z,52.88
2023-05-19T12:30:26.694Z,52.93
2023-05-19T12:32:54.152Z,52.69
2023-05-19T12:35:20.764Z,52.26
2023-05-19T12:37:49.063Z,52.24
2023-05-19T12:40:16.787Z,52.60
2023-05-19T12:42:46.672Z,52.82
2023-05-19T12:45:13.030Z,52.62
2023-05-19T12:47:39.490Z,52.86
2023-05-19T12:50:10.766Z,52.74
2023-05-19T12:52:45.700Z,52.69
2023-05-19T12:55:12.435Z,52.99
2023-05-19T12:57:41.017Z,52.99
2023-05-19T13:00:17.440Z,52.66
2023-05-19T13:03:05.020Z,52.63
2023-05-19T13:05:39.680Z,52.35
2023-05-19T13:08:10.024Z,52.97
2023-05-19T13:10:38.220Z,52.26
2023-05-19T13:13:05.744Z,52.34
2023-05-19T13:15:35.624Z,52.20
2023-05-19T13:18:04.084Z,52.83
2023-05-19T13:20:30.738Z,52.97
2023-05-19T13:22:57.471Z,53.23
2023-05-19T13:25:24.209Z,53.11
2023-05-19T13:27:50.973Z,53.34
2023-05-19T13:30:18.586Z,52.97
2023-05-19T13:32:45.963Z,52.77
2023-05-19T13:35:13.959Z,52.29
2023-05-19T13:37:42.152Z,52.72
2023-05-19T13:40:09.755Z,52.60
2023-05-19T13:42:36.337Z,53.17
2023-05-19T13:45:03.584Z,53.23
2023-05-19T13:47:30.292Z,53.22
2023-05-19T13:49:57.433Z,52.93
2023-05-19T13:52:23.872Z,53.23
2023-05-19T13:54:50.381Z,53.03
2023-05-19T13:57:16.980Z,52.62
2023-05-19T13:59:57.605Z,52.37
2023-05-19T14:02:27.890Z,52.42
2023-05-19T14:04:54.373Z,52.22
2023-05-19T14:07:21.145Z,52.09
2023-05-19T14:09:47.538Z,51.89
2023-05-19T14:12:13.938Z,52.60
2023-05-19T14:14:40.416Z,52.15
2023-05-19T14:17:06.827Z,52.44
2023-05-19T14:19:33.262Z,52.25
2023-05-19T14:22:00.125Z,52.15
2023-05-19T14:24:26.533Z,52.11
2023-05-19T14:26:53.691Z,52.86
2023-05-19T14:29:20.096Z,52.77
2023-05-19T14:31:46.539Z,52.84
2023-05-19T14:34:13.029Z,53.10
2023-05-19T14:36:39.416Z,52.67
2023-05-19T14:39:05.867Z,52.29
2023-05-19T14:41:32.268Z,52.52
2023-05-19T14:43:58.652Z,51.96
2023-05-19T14:46:25.182Z,52.44
2023-05-19T14:48:51.554Z,51.88
2023-05-19T14:51:17.922Z,51.60
2023-05-19T14:53:44.292Z,52.26
2023-05-19T14:56:10.701Z,52.31
2023-05-19T14:58:37.153Z,52.91
2023-05-19T15:01:03.866Z,53.17
2023-05-19T15:03:30.443Z,52.74
2023-05-19T15:05:56.861Z,52.48
2023-05-19T15:08:23.514Z,52.46
2023-05-19T15:10:50.547Z,52.15
2023-05-19T15:13:18.720Z,52.75
2023-05-19T15:15:45.868Z,53.13
2023-05-19T15:18:13.068Z,52.48
2023-05-19T15:20:39.506Z,52.61
2023-05-19T15:23:05.998Z,52.69
2023-05-19T15:25:32.377Z,52.39
2023-05-19T15:27:58.761Z,52.67
2023-05-19T15:30:25.204Z,52.26
2023-05-19T15:32:51.682Z,53.19
2023-05-19T15:35:18.102Z,53.68
2023-05-19T15:37:44.488Z,53.47
2023-05-19T15:40:11.476Z,53.09
2023-05-19T15:42:37.862Z,52.43
2023-05-19T15:45:05.690Z,52.75
2023-05-19T15:47:32.089Z,52.72
2023-05-19T15:49:58.615Z,52.46
2023-05-19T15:52:25.363Z,52.65
2023-05-19T15:54:51.930Z,53.15
2023-05-19T15:57:18.319Z,52.92
2023-05-19T15:59:44.771Z,52.67
2023-05-19T16:02:11.413Z,53.14
2023-05-19T16:04:37.925Z,53.09
2023-05-19T16:07:04.429Z,53.41
2023-05-19T16:09:30.839Z,52.94
2023-05-19T16:11:57.392Z,54.01
2023-05-19T16:14:24.396Z,53.67
2023-05-19T16:16:51.062Z,53.19
2023-05-19T16:19:17.804Z,53.14
2023-05-19T16:21:44.200Z,53.33
2023-05-19T16:24:10.764Z,52.51
2023-05-19T16:26:37.144Z,52.53
2023-05-19T16:29:03.591Z,52.65
2023-05-19T16:31:30.249Z,52.65
2023-05-19T16:33:56.758Z,53.04
2023-05-19T16:36:23.146Z,52.53
2023-05-19T16:38:49.563Z,53.36
2023-05-19T16:41:15.991Z,53.32
2023-05-19T16:43:42.425Z,53.15
2023-05-19T16:46:10.023Z,53.33
2023-05-19T16:48:36.537Z,53.24
2023-05-19T16:51:03.030Z,53.43
2023-05-19T16:53:29.442Z,54.20
2023-05-19T16:55:55.803Z,53.68
2023-05-19T16:58:22.237Z,53.08
2023-05-19T17:00:51.915Z,53.36
2023-05-19T17:03:18.889Z,53.09
2023-05-19T17:05:45.674Z,53.59
2023-05-19T17:08:12.661Z,53.21
2023-05-19T17:10:39.259Z,52.57
2023-05-19T17:13:05.790Z,52.98
2023-05-19T17:15:33.850Z,53.00
2023-05-19T17:18:00.321Z,52.82
2023-05-19T17:20:26.824Z,53.11
2023-05-19T17:22:53.209Z,53.07
2023-05-19T17:25:19.604Z,53.21
2023-05-19T17:27:46.210Z,53.28
2023-05-19T17:30:13.190Z,53.43
2023-05-19T17:32:39.859Z,52.88
2023-05-19T17:35:07.062Z,53.71
2023-05-19T17:37:33.496Z,53.18
2023-05-19T17:39:59.932Z,53.88
2023-05-19T17:42:26.471Z,54.27
2023-05-19T17:44:52.837Z,54.08
2023-05-19T17:47:19.240Z,53.80
2023-05-19T17:49:46.141Z,53.78
2023-05-19T17:52:12.810Z,54.45
2023-05-19T17:54:39.405Z,54.05
2023-05-19T17:57:10.751Z,54.20
2023-05-19T17:59:37.371Z,54.12
2023-05-19T18:02:04.332Z,53.88
2023-05-19T18:04:31.257Z,54.06
2023-05-19T18:06:59.188Z,54.11
2023-05-19T18:09:28.732Z,54.09
2023-05-19T18:11:55.529Z,53.73
2023-05-19T18:14:21.968Z,54.05
2023-05-19T18:16:49.954Z,54.18
2023-05-19T18:19:16.700Z,53.79
2023-05-19T18:21:43.098Z,54.39
2023-05-19T18:24:11.244Z,54.46
2023-05-19T18:26:41.588Z,54.99
2023-05-19T18:29:11.454Z,54.75
2023-05-19T18:31:38.196Z,54.18
2023-05-19T18:34:04.716Z,54.53
2023-05-19T18:36:31.470Z,54.20
2023-05-19T18:38:59.201Z,54.22
2023-05-19T18:41:25.797Z,54.72
2023-05-19T18:43:52.166Z,54.11
2023-05-19T18:46:18.702Z,54.58
2023-05-19T18:48:45.297Z,54.54
2023-05-19T18:51:14.100Z,54.54
2023-05-19T18:53:40.476Z,54.46
2023-05-19T18:56:07.276Z,54.01
2023-05-19T18:58:33.641Z,54.20
2023-05-19T19:01:00.038Z,54.49
2023-05-19T19:03:26.607Z,54.10
2023-05-19T19:05:56.758Z,55.11
2023-05-19T19:08:23.195Z,54.91
2023-05-19T19:10:51.367Z,54.38
2023-05-19T19:13:18.274Z,54.77
2023-05-19T19:15:45.105Z,54.92
2023-05-19T19:18:11.868Z,54.62
2023-05-19T19:20:38.325Z,54.46
2023-05-19T19:23:06.474Z,54.67
2023-05-19T19:25:33.412Z,54.11
2023-05-19T19:27:59.770Z,54.02
2023-05-19T19:30:26.832Z,54.20
2023-05-19T19:32:54.777Z,54.85
2023-05-19T19:35:21.365Z,55.21
2023-05-19T19:37:47.831Z,55.17
2023-05-19T19:40:14.302Z,54.79
2023-05-19T19:42:40.872Z,55.07
2023-05-19T19:45:07.764Z,54.61
2023-05-19T19:47:34.232Z,54.95
2023-05-19T19:50:02.567Z,54.77
2023-05-19T19:52:28.979Z,54.85
2023-05-19T19:54:55.581Z,55.05
2023-05-19T19:57:22.002Z,54.98
2023-05-19T19:59:54.944Z,54.85
2023-05-19T20:02:21.627Z,54.50
2023-05-19T20:04:48.245Z,54.76
2023-05-19T20:07:14.642Z,54.90
2023-05-19T20:09:41.030Z,54.66
2023-05-19T20:12:07.601Z,54.87
2023-05-19T20:14:34.039Z,54.16
2023-05-19T20:17:00.423Z,54.84
2023-05-19T20:19:26.923Z,54.60
2023-05-19T20:21:53.337Z,55.52
2023-05-19T20:24:19.906Z,54.51
2023-05-19T20:26:46.427Z,54.97
2023-05-19T20:29:12.801Z,54.82
2023-05-19T20:31:39.183Z,54.81
2023-05-19T20:34:05.702Z,54.26
2023-05-19T20:36:32.161Z,56.14
2023-05-19T20:38:58.639Z,55.46
2023-05-19T20:41:25.042Z,55.32
2023-05-19T20:43:51.449Z,55.84
2023-05-19T20:46:17.959Z,55.96
2023-05-19T20:48:44.466Z,55.93
2023-05-19T20:51:10.856Z,55.96
2023-05-19T20:53:37.460Z,56.08
2023-05-19T20:56:05.498Z,56.36
2023-05-19T20:58:32.128Z,56.62
2023-05-19T21:00:58.632Z,57.07
2023-05-19T21:03:26.727Z,57.09
2023-05-19T21:05:53.358Z,56.95
2023-05-19T21:08:19.784Z,57.74
2023-05-19T21:10:46.252Z,58.25
2023-05-19T21:13:12.645Z,58.74
2023-05-19T21:15:39.410Z,58.42
2023-05-19T21:18:06.590Z,58.24
2023-05-19T21:20:33.197Z,58.23
2023-05-19T21:22:59.679Z,57.58
2023-05-19T21:25:26.051Z,57.73
2023-05-19T21:27:52.761Z,57.65
2023-05-19T21:30:19.152Z,57.79
2023-05-19T21:32:45.769Z,57.46
2023-05-19T21:35:12.166Z,57.77
2023-05-19T21:37:38.556Z,57.65
2023-05-19T21:40:05.763Z,57.87
2023-05-19T21:42:32.164Z,57.70
2023-05-19T21:44:58.579Z,57.53
2023-05-19T21:47:25.138Z,57.17
2023-05-19T21:49:51.529Z,57.39
2023-05-19T21:52:18.902Z,57.26
2023-05-19T21:54:45.643Z,57.45
2023-05-19T21:57:12.616Z,57.45
2023-05-19T21:59:39.164Z,57.68
2023-05-19T22:02:06.160Z,58.01
2023-05-19T22:04:32.760Z,58.28
2023-05-19T22:06:59.185Z,58.24
2023-05-19T22:09:26.089Z,58.28
2023-05-19T22:11:52.484Z,58.02
2023-05-19T22:14:18.898Z,58.27
2023-05-19T22:16:47.285Z,58.06
2023-05-19T22:19:14.489Z,58.68
2023-05-19T22:21:41.042Z,58.70
2023-05-19T22:24:07.457Z,58.17
2023-05-19T22:26:35.644Z,58.20
2023-05-19T22:29:02.522Z,58.42
2023-05-19T22:31:29.562Z,58.41
2023-05-19T22:33:56.057Z,57.88
2023-05-19T22:36:23.462Z,59.00
2023-05-19T22:38:49.895Z,58.71
2023-05-19T22:41:16.347Z,58.51
2023-05-19T22:43:43.390Z,58.69
2023-05-19T22:46:10.159Z,58.87
2023-05-19T22:48:36.668Z,58.57
2023-05-19T22:51:03.151Z,58.78
2023-05-19T22:53:29.571Z,58.72
2023-05-19T22:55:56.040Z,59.26
2023-05-19T22:58:22.536Z,59.47
2023-05-19T23:00:49.024Z,59.15
2023-05-19T23:03:15.547Z,59.19
2023-05-19T23:05:42.764Z,59.06
2023-05-19T23:08:09.234Z,59.25
2023-05-19T23:10:35.764Z,59.38
2023-05-19T23:13:02.246Z,59.56
2023-05-19T23:15:28.731Z,59.92
2023-05-19T23:17:55.363Z,59.67
2023-05-19T23:20:21.880Z,59.87
2023-05-19T23:22:48.277Z,59.74
2023-05-19T23:25:14.686Z,59.48
2023-05-19T23:27:41.198Z,59.35
2023-05-19T23:30:08.255Z,59.17
2023-05-19T23:32:34.651Z,59.50
2023-05-19T23:35:15.526Z,59.39
2023-05-19T23:37:42.265Z,59.92
2023-05-19T23:40:09.232Z,59.49
2023-05-19T23:42:36.324Z,59.28
2023-05-19T23:45:03.521Z,60.06
2023-05-19T23:47:30.030Z,59.80
2023-05-19T23:49:56.699Z,59.62
2023-05-19T23:52:23.136Z,59.29
2023-05-19T23:54:49.939Z,59.43
2023-05-19T23:57:16.600Z,58.88
2023-05-19T23:59:43.129Z,59.53
